createdAt,value
2018-02-08T00:00:24.946Z,100411.85
2018-02-08T00:02:54.026Z,100429.60
2018-02-08T00:05:24.830Z,100424.95
2018-02-08T00:07:55.410Z,100419.45
2018-02-08T00:10:25.261Z,100419.89
2018-02-08T00:12:55.146Z,100412.30
2018-02-08T00:15:24.241Z,100396.59
2018-02-08T00:17:54.155Z,100397.07
2018-02-08T00:20:23.035Z,100376.81
2018-02-08T00:22:53.096Z,100360.78
2018-02-08T00:25:22.198Z,100357.34
2018-02-08T00:27:51.288Z,100353.14
2018-02-08T00:30:21.800Z,100347.23
2018-02-08T00:32:50.880Z,100349.37
2018-02-08T00:35:20.632Z,100346.80
2018-02-08T00:37:51.324Z,100341.33
2018-02-08T00:40:20.828Z,100336.27
2018-02-08T00:42:50.849Z,100327.45
2018-02-08T00:45:21.222Z,100308.47
2018-02-08T00:47:50.308Z,100302.95
2018-02-08T00:50:19.362Z,100315.58
2018-02-08T00:52:49.999Z,100328.72
2018-02-08T00:55:19.042Z,100349.88
2018-02-08T00:57:48.116Z,100338.06
2018-02-08T01:00:17.393Z,100332.95
2018-02-08T01:02:46.476Z,100321.17
2018-02-08T01:05:15.437Z,100313.11
2018-02-08T01:07:45.412Z,100289.08
2018-02-08T01:10:14.478Z,100284.02
2018-02-08T01:12:44.696Z,100279.75
2018-02-08T01:15:15.356Z,100271.31
2018-02-08T01:17:45.211Z,100251.47
2018-02-08T01:20:15.058Z,100251.47
2018-02-08T01:22:44.913Z,100243.03
2018-02-08T01:25:13.937Z,100223.61
2018-02-08T01:27:42.925Z,100213.06
2018-02-08T01:30:12.981Z,100222.34
2018-02-08T01:32:42.035Z,100215.59
2018-02-08T01:35:11.036Z,100226.56
2018-02-08T01:37:40.125Z,100225.72
2018-02-08T01:40:09.121Z,100223.19
2018-02-08T01:42:38.096Z,100219.39
2018-02-08T01:45:07.190Z,100204.20
2018-02-08T01:47:36.248Z,100199.94
2018-02-08T01:50:05.784Z,100191.92
2018-02-08T01:52:37.160Z,100183.06
2018-02-08T01:55:06.186Z,100177.99
2018-02-08T01:57:35.186Z,100180.11
2018-02-08T02:00:05.380Z,100187.70
2018-02-08T02:02:34.429Z,100183.06
2018-02-08T02:05:03.463Z,100173.36
2018-02-08T02:07:32.603Z,100175.46
2018-02-08T02:10:02.818Z,100169.55
2018-02-08T02:12:31.777Z,100161.54
2018-02-08T02:15:01.779Z,100139.17
2018-02-08T02:17:30.677Z,100137.48
2018-02-08T02:19:59.676Z,100145.08
2018-02-08T02:22:30.442Z,100137.48
2018-02-08T02:24:59.589Z,100137.91
2018-02-08T02:27:28.716Z,100136.19
2018-02-08T02:30:00.064Z,100141.70
2018-02-08T02:32:29.965Z,100127.38
2018-02-08T02:34:59.067Z,100130.73
2018-02-08T02:37:32.260Z,100128.20
2018-02-08T02:40:01.353Z,100117.66
2018-02-08T02:42:30.862Z,100104.58
2018-02-08T02:45:01.635Z,100101.63
2018-02-08T02:47:30.821Z,100097.83
2018-02-08T02:50:00.049Z,100092.73
2018-02-08T02:52:30.871Z,100085.59
2018-02-08T02:55:00.871Z,100070.41
2018-02-08T02:57:29.946Z,100075.02
2018-02-08T02:59:58.971Z,100085.16
2018-02-08T03:02:28.034Z,100065.33
2018-02-08T03:04:57.744Z,100064.48
2018-02-08T03:07:26.711Z,100069.55
2018-02-08T03:09:57.269Z,100072.06
2018-02-08T03:12:26.577Z,100066.17
2018-02-08T03:14:56.413Z,100064.49
2018-02-08T03:17:26.133Z,100056.47
2018-02-08T03:19:55.086Z,100058.98
2018-02-08T03:22:27.663Z,100049.29
2018-02-08T03:24:57.373Z,100058.56
2018-02-08T03:27:26.472Z,100061.94
2018-02-08T03:29:55.789Z,100064.90
2018-02-08T03:32:25.724Z,100051.42
2018-02-08T03:34:54.709Z,100052.26
2018-02-08T03:37:27.153Z,100062.38
2018-02-08T03:39:56.080Z,100043.39
2018-02-08T03:42:25.792Z,100040.42
2018-02-08T03:44:55.817Z,100042.12
2018-02-08T03:47:25.753Z,100033.24
2018-02-08T03:49:54.785Z,100030.30
2018-02-08T03:52:23.921Z,100042.55
2018-02-08T03:54:53.488Z,100039.59
2018-02-08T03:57:22.417Z,100054.78
2018-02-08T03:59:52.543Z,100056.02
2018-02-08T04:02:21.633Z,100046.32
2018-02-08T04:04:50.626Z,100047.17
2018-02-08T04:07:20.030Z,100053.48
2018-02-08T04:09:49.821Z,100045.45
2018-02-08T04:12:18.818Z,100039.52
2018-02-08T04:14:48.157Z,100035.75
2018-02-08T04:17:17.951Z,100032.37
2018-02-08T04:19:46.937Z,100031.94
2018-02-08T04:22:18.127Z,100029.42
2018-02-08T04:24:49.141Z,100031.08
2018-02-08T04:27:20.254Z,100027.27
2018-02-08T04:29:49.267Z,100024.75
2018-02-08T04:32:18.259Z,100011.64
2018-02-08T04:34:48.079Z,100017.55
2018-02-08T04:37:17.068Z,100009.53
2018-02-08T04:43:00.224Z,99999.39
2018-02-08T04:45:41.189Z,99997.70
2018-02-08T04:48:10.185Z,99997.27
2018-02-08T04:50:39.314Z,99986.25
2018-02-08T04:53:10.940Z,99983.73
2018-02-08T04:55:40.748Z,99979.52
2018-02-08T04:58:09.844Z,99974.83
2018-02-08T05:00:40.478Z,99966.41
2018-02-08T05:03:10.558Z,99965.49
2018-02-08T05:05:39.489Z,99966.38
2018-02-08T05:08:09.439Z,99954.58
2018-02-08T05:10:38.397Z,99958.40
2018-02-08T05:13:07.597Z,99958.00
2018-02-08T05:15:36.688Z,99947.43
2018-02-08T05:18:05.676Z,99944.05
2018-02-08T05:20:34.578Z,99934.24
2018-02-08T05:23:04.423Z,99933.82
2018-02-08T05:25:34.053Z,99927.97
2018-02-08T05:28:02.994Z,99933.42
2018-02-08T05:30:33.407Z,99938.05
2018-02-08T05:33:02.517Z,99929.56
2018-02-08T05:35:31.712Z,99935.86
2018-02-08T05:38:00.805Z,99930.42
2018-02-08T05:40:29.953Z,99924.91
2018-02-08T05:42:58.996Z,99925.69
2018-02-08T05:45:29.261Z,99923.95
2018-02-08T05:47:58.320Z,99926.52
2018-02-08T05:50:28.132Z,99917.30
2018-02-08T05:52:57.220Z,99908.95
2018-02-08T05:55:26.940Z,99917.75
2018-02-08T05:57:57.191Z,99914.72
2018-02-08T06:00:26.514Z,99908.44
2018-02-08T06:02:55.560Z,99910.12
2018-02-08T06:05:24.756Z,99915.23
2018-02-08T06:07:53.755Z,99898.73
2018-02-08T06:10:22.745Z,99897.47
2018-02-08T06:12:51.725Z,99891.97
2018-02-08T06:15:22.885Z,99891.47
2018-02-08T06:17:52.272Z,99881.86
2018-02-08T06:20:21.468Z,99889.58
2018-02-08T06:22:52.325Z,99926.28
2018-02-08T06:25:21.522Z,99961.34
2018-02-08T06:27:50.614Z,99970.63
2018-02-08T06:30:21.964Z,99972.30
2018-02-08T06:32:51.060Z,99959.21
2018-02-08T06:35:20.879Z,99965.59
2018-02-08T06:37:52.339Z,99942.75
2018-02-08T06:40:21.889Z,99964.30
2018-02-08T06:42:51.181Z,99959.20
2018-02-08T06:45:20.467Z,99948.63
2018-02-08T06:47:49.416Z,99949.02
2018-02-08T06:50:18.436Z,99959.95
2018-02-08T06:52:49.100Z,99972.16
2018-02-08T06:55:18.136Z,99975.14
2018-02-08T06:57:47.076Z,99989.12
2018-02-08T07:00:17.780Z,99988.23
2018-02-08T07:02:47.022Z,100004.78
2018-02-08T07:05:16.276Z,99998.45
2018-02-08T07:07:45.331Z,99987.03
2018-02-08T07:10:14.275Z,99963.78
2018-02-08T07:12:44.901Z,99966.75
2018-02-08T07:15:14.065Z,99989.15
2018-02-08T07:17:42.997Z,99987.47
2018-02-08T07:20:12.337Z,99990.03
2018-02-08T07:22:41.455Z,99979.03
2018-02-08T07:25:10.535Z,99968.50
2018-02-08T07:27:39.525Z,99957.05
2018-02-08T07:30:09.380Z,99940.59
2018-02-08T07:32:38.386Z,99953.70
2018-02-08T07:35:07.419Z,99937.66
2018-02-08T07:37:38.463Z,99912.31
2018-02-08T07:40:08.034Z,99915.80
2018-02-08T07:42:37.763Z,99908.61
2018-02-08T07:45:07.695Z,99902.30
2018-02-08T07:47:36.758Z,99892.98
2018-02-08T07:50:07.733Z,99873.95
2018-02-08T07:52:36.740Z,99837.98
2018-02-08T07:55:05.624Z,99831.52
2018-02-08T07:57:34.773Z,99807.69
2018-02-08T08:00:04.034Z,99823.92
2018-02-08T08:02:33.107Z,99823.41
2018-02-08T08:05:02.324Z,99826.67
2018-02-08T08:07:31.314Z,99821.11
2018-02-08T08:10:00.418Z,99826.55
2018-02-08T08:12:31.405Z,99838.78
2018-02-08T08:15:02.811Z,99829.57
2018-02-08T08:17:34.861Z,99816.41
2018-02-08T08:20:04.114Z,99804.02
2018-02-08T08:22:33.001Z,99810.37
2018-02-08T08:25:02.035Z,99808.25
2018-02-08T08:27:31.353Z,99793.96
2018-02-08T08:30:03.717Z,99810.36
2018-02-08T08:32:32.757Z,99835.52
2018-02-08T08:35:01.980Z,99851.51
2018-02-08T08:37:31.076Z,99860.69
2018-02-08T08:40:00.269Z,99867.05
2018-02-08T08:42:29.271Z,99861.41
2018-02-08T08:44:59.382Z,99853.30
2018-02-08T08:47:30.111Z,99840.62
2018-02-08T08:49:59.319Z,99836.38
2018-02-08T08:52:28.827Z,99861.73
2018-02-08T08:54:58.129Z,99867.05
2018-02-08T08:57:27.247Z,99873.81
2018-02-08T08:59:56.424Z,99890.89
2018-02-08T09:02:25.384Z,99890.98
2018-02-08T09:04:55.129Z,99904.71
2018-02-08T09:07:24.973Z,99912.78
2018-02-08T09:09:54.920Z,99902.64
2018-02-08T09:12:24.053Z,99911.45
2018-02-08T09:14:54.129Z,99909.58
2018-02-08T09:17:27.262Z,99905.05
2018-02-08T09:19:57.229Z,99899.23
2018-02-08T09:22:26.227Z,99903.75
2018-02-08T09:24:56.553Z,99899.50
2018-02-08T09:27:25.531Z,99898.16
2018-02-08T09:29:55.421Z,99899.80
2018-02-08T09:32:24.451Z,99903.67
2018-02-08T09:34:53.532Z,99903.27
2018-02-08T09:37:22.559Z,99866.47
2018-02-08T09:39:52.354Z,99853.20
2018-02-08T09:42:22.260Z,99850.86
2018-02-08T09:44:51.365Z,99843.78
2018-02-08T09:47:20.555Z,99828.09
2018-02-08T09:49:49.656Z,99826.30
2018-02-08T09:52:18.610Z,99842.13
2018-02-08T09:54:49.445Z,99842.86
2018-02-08T09:57:18.744Z,99838.52
2018-02-08T09:59:47.945Z,99835.36
2018-02-08T10:02:17.245Z,99826.61
2018-02-08T10:04:48.775Z,99821.71
2018-02-08T10:07:17.894Z,99818.06
2018-02-08T10:09:46.929Z,99808.67
2018-02-08T10:12:18.004Z,99805.56
2018-02-08T10:14:47.020Z,99801.13
2018-02-08T10:17:16.135Z,99801.85
2018-02-08T10:19:46.216Z,99806.44
2018-02-08T10:22:16.773Z,99809.81
2018-02-08T10:24:46.720Z,99807.14
2018-02-08T10:27:15.736Z,99797.69
2018-02-08T10:29:47.360Z,99800.22
2018-02-08T10:32:16.460Z,99802.67
2018-02-08T10:34:45.542Z,99794.52
2018-02-08T10:37:17.993Z,99794.61
2018-02-08T10:39:47.512Z,99793.30
2018-02-08T10:42:16.504Z,99787.59
2018-02-08T10:44:45.615Z,99791.27
2018-02-08T10:47:14.547Z,99796.65
2018-02-08T10:49:44.411Z,99790.05
2018-02-08T10:52:13.649Z,99798.05
2018-02-08T10:54:42.708Z,99783.85
2018-02-08T10:57:11.796Z,99786.28
2018-02-08T10:59:40.825Z,99788.31
2018-02-08T11:02:13.169Z,99780.58
2018-02-08T11:04:44.617Z,99788.70
2018-02-08T11:07:13.617Z,99798.64
2018-02-08T11:09:42.652Z,99798.48
2018-02-08T11:12:12.512Z,99807.61
2018-02-08T11:14:42.266Z,99803.70
2018-02-08T11:17:13.071Z,99799.12
2018-02-08T11:19:46.388Z,99803.80
2018-02-08T11:22:15.356Z,99805.99
2018-02-08T11:24:44.269Z,99807.80
2018-02-08T11:27:13.355Z,99799.40
2018-02-08T11:29:42.479Z,99800.73
2018-02-08T11:32:11.489Z,99800.45
2018-02-08T11:34:41.176Z,99798.52
2018-02-08T11:37:10.070Z,99799.44
2018-02-08T11:39:39.850Z,99799.27
2018-02-08T11:42:11.641Z,99800.78
2018-02-08T11:44:40.710Z,99795.81
2018-02-08T11:47:09.698Z,99795.55
2018-02-08T11:49:41.518Z,99790.36
2018-02-08T11:52:10.589Z,99794.05
2018-02-08T11:54:40.159Z,99799.64
2018-02-08T11:57:12.950Z,99793.41
2018-02-08T11:59:43.198Z,99799.29
2018-02-08T12:02:12.268Z,99796.98
2018-02-08T12:04:42.989Z,99789.49
2018-02-08T12:07:12.494Z,99795.81
2018-02-08T12:09:41.712Z,99790.47
2018-02-08T12:12:11.678Z,99796.87
2018-02-08T12:14:40.758Z,99794.64
2018-02-08T12:17:09.743Z,99798.31
2018-02-08T12:19:40.371Z,99797.78
2018-02-08T12:22:09.402Z,99799.73
2018-02-08T12:24:38.426Z,99802.09
2018-02-08T12:27:07.630Z,99805.95
2018-02-08T12:29:36.873Z,99808.75
2018-02-08T12:32:05.968Z,99805.42
2018-02-08T12:34:35.160Z,99807.22
2018-02-08T12:37:04.098Z,99809.75
2018-02-08T12:39:33.142Z,99807.09
2018-02-08T12:42:02.200Z,99812.45
2018-02-08T12:44:31.160Z,99807.26
2018-02-08T12:47:01.740Z,99804.37
2018-02-08T12:49:33.166Z,99802.98
2018-02-08T12:52:02.170Z,99810.07
2018-02-08T12:54:31.784Z,99805.27
2018-02-08T12:57:02.623Z,99798.43
2018-02-08T12:59:31.925Z,99803.84
2018-02-08T13:02:00.915Z,99796.78
2018-02-08T13:04:31.758Z,99798.03
2018-02-08T13:07:01.465Z,99798.80
2018-02-08T13:09:31.281Z,99805.09
2018-02-08T13:12:00.514Z,99802.70
2018-02-08T13:14:33.583Z,99807.77
2018-02-08T13:17:03.026Z,99808.44
2018-02-08T13:19:33.150Z,99808.07
2018-02-08T13:22:02.969Z,99805.92
2018-02-08T13:24:32.103Z,99805.66
2018-02-08T13:27:02.809Z,99817.19
2018-02-08T13:29:32.047Z,99815.03
2018-02-08T13:32:03.008Z,99818.37
2018-02-08T13:34:32.733Z,99808.42
2018-02-08T13:37:02.961Z,99811.79
2018-02-08T13:39:35.904Z,99816.94
2018-02-08T13:42:07.966Z,99819.28
2018-02-08T13:44:38.588Z,99820.13
2018-02-08T13:50:17.894Z,99816.20
2018-02-08T13:52:52.377Z,99816.10
2018-02-08T13:55:28.281Z,99813.97
2018-02-08T13:57:58.284Z,99816.59
2018-02-08T14:00:32.781Z,99815.71
2018-02-08T14:03:03.437Z,99818.33
2018-02-08T14:05:33.736Z,99813.22
2018-02-08T14:08:02.940Z,99812.32
2018-02-08T14:10:33.674Z,99815.24
2018-02-08T14:13:02.847Z,99822.27
2018-02-08T14:15:33.287Z,99815.64
2018-02-08T14:18:02.389Z,99818.65
2018-02-08T14:20:32.419Z,99816.99
2018-02-08T14:23:02.127Z,99824.66
2018-02-08T14:25:31.997Z,99830.05
2018-02-08T14:28:01.324Z,99837.30
2018-02-08T14:30:30.229Z,99835.45
2018-02-08T14:32:59.714Z,99845.12
2018-02-08T14:35:29.588Z,99846.08
2018-02-08T14:37:58.643Z,99853.05
2018-02-08T14:40:27.848Z,99856.98
2018-02-08T14:42:59.058Z,99862.51
2018-02-08T14:45:30.545Z,99868.95
2018-02-08T14:47:59.646Z,99867.37
2018-02-08T14:50:28.844Z,99870.59
2018-02-08T14:52:57.900Z,99875.73
2018-02-08T14:55:26.912Z,99877.97
2018-02-08T14:57:57.276Z,99876.08
2018-02-08T15:00:26.264Z,99880.47
2018-02-08T15:02:55.288Z,99879.73
2018-02-08T15:05:24.482Z,99882.81
2018-02-08T15:07:54.973Z,99884.28
2018-02-08T15:10:24.064Z,99883.06
2018-02-08T15:12:53.159Z,99891.59
2018-02-08T15:15:22.151Z,99892.54
2018-02-08T15:17:52.273Z,99896.55
2018-02-08T15:20:21.467Z,99893.76
2018-02-08T15:22:52.212Z,99897.79
2018-02-08T15:25:24.270Z,99902.57
2018-02-08T15:27:53.164Z,99903.23
2018-02-08T15:30:22.202Z,99910.23
2018-02-08T15:32:52.345Z,99913.79
2018-02-08T15:35:21.280Z,99919.42
2018-02-08T15:37:50.266Z,99922.52
2018-02-08T15:40:21.895Z,99925.59
2018-02-08T15:42:50.825Z,99927.80
2018-02-08T15:45:19.916Z,99934.31
2018-02-08T15:47:49.085Z,99934.43
2018-02-08T15:50:18.100Z,99935.44
2018-02-08T15:52:47.189Z,99939.00
2018-02-08T15:55:18.560Z,99947.61
2018-02-08T15:57:48.270Z,99952.78
2018-02-08T16:00:18.075Z,99958.02
2018-02-08T16:02:47.354Z,99955.58
2018-02-08T16:05:16.304Z,99955.25
2018-02-08T16:07:45.812Z,99959.17
2018-02-08T16:10:16.710Z,99960.54
2018-02-08T16:12:45.808Z,99955.13
2018-02-08T16:15:14.933Z,99959.05
2018-02-08T16:17:46.349Z,99957.84
2018-02-08T16:20:15.347Z,99954.05
2018-02-08T16:22:48.819Z,99954.97
2018-02-08T16:25:17.875Z,99960.47
2018-02-08T16:27:48.373Z,99962.13
2018-02-08T16:30:19.312Z,99960.91
2018-02-08T16:32:48.823Z,99971.06
2018-02-08T16:35:17.864Z,99964.71
2018-02-08T16:37:47.099Z,99967.30
2018-02-08T16:40:17.551Z,99968.13
2018-02-08T16:42:47.491Z,99982.05
2018-02-08T16:45:16.558Z,99982.50
2018-02-08T16:47:46.572Z,99985.94
2018-02-08T16:50:19.031Z,99982.97
2018-02-08T16:52:48.868Z,99994.02
2018-02-08T16:55:17.854Z,99989.83
2018-02-08T16:57:47.953Z,99993.70
2018-02-08T17:00:17.616Z,99988.66
2018-02-08T17:02:46.607Z,99987.39
2018-02-08T17:05:15.925Z,99990.77
2018-02-08T17:07:45.017Z,99991.62
2018-02-08T17:10:14.188Z,99995.85
2018-02-08T17:12:43.969Z,99992.49
2018-02-08T17:15:12.985Z,99993.79
2018-02-08T17:17:42.381Z,99987.05
2018-02-08T17:20:11.379Z,99988.80
2018-02-08T17:22:40.476Z,99995.58
2018-02-08T17:25:10.209Z,99997.31
2018-02-08T17:27:39.829Z,99995.27
2018-02-08T17:30:08.925Z,99998.66
2018-02-08T17:32:37.973Z,99994.94
2018-02-08T17:35:07.843Z,99993.69
2018-02-08T17:37:36.793Z,99999.63
2018-02-08T17:40:06.619Z,100000.08
2018-02-08T17:42:35.714Z,100000.55
2018-02-08T17:45:05.015Z,100000.13
2018-02-08T17:47:35.023Z,100001.00
2018-02-08T17:50:04.294Z,100006.09
2018-02-08T17:55:18.728Z,100002.77
2018-02-08T17:57:47.693Z,100015.85
2018-02-08T18:00:16.926Z,100011.23
2018-02-08T18:02:47.115Z,100008.70
2018-02-08T18:05:17.133Z,100007.86
2018-02-08T18:07:46.376Z,100005.76
2018-02-08T18:10:16.252Z,100008.72
2018-02-08T18:12:46.067Z,100005.34
2018-02-08T18:15:15.777Z,100012.94
2018-02-08T18:17:46.525Z,100012.50
2018-02-08T18:20:15.649Z,100008.30
2018-02-08T18:22:44.748Z,100006.21
2018-02-08T18:25:14.780Z,100007.48
2018-02-08T18:27:44.659Z,100014.66
2018-02-08T18:30:13.586Z,100012.55
2018-02-08T18:32:42.755Z,100014.20
2018-02-08T18:35:12.014Z,100012.52
2018-02-08T18:37:40.950Z,100004.88
2018-02-08T18:40:13.696Z,100028.88
2018-02-08T18:42:42.785Z,100026.69
2018-02-08T18:45:11.829Z,100032.94
2018-02-08T18:47:41.729Z,100031.23
2018-02-08T18:50:10.689Z,100035.91
2018-02-08T18:52:39.789Z,100037.59
2018-02-08T18:55:08.885Z,100044.78
2018-02-08T18:57:38.255Z,100034.65
2018-02-08T19:00:07.555Z,100037.18
2018-02-08T19:02:39.071Z,100032.11
2018-02-08T19:05:08.133Z,100034.27
2018-02-08T19:07:37.164Z,100032.61
2018-02-08T19:10:07.289Z,100041.06
2018-02-08T19:12:37.112Z,100043.58
2018-02-08T19:15:06.963Z,100052.46
2018-02-08T19:17:39.803Z,100050.31
2018-02-08T19:20:09.878Z,100052.80
2018-02-08T19:22:38.981Z,100057.93
2018-02-08T19:25:08.075Z,100057.13
2018-02-08T19:27:37.312Z,100056.27
2018-02-08T19:30:06.881Z,100066.00
2018-02-08T19:32:41.817Z,100063.45
2018-02-08T19:35:10.893Z,100057.95
2018-02-08T19:37:40.036Z,100048.71
2018-02-08T19:40:13.302Z,100051.22
2018-02-08T19:42:44.351Z,100049.58
2018-02-08T19:45:13.803Z,100045.83
2018-02-08T19:47:42.866Z,100037.37
2018-02-08T19:50:11.942Z,100042.89
2018-02-08T19:52:41.385Z,100043.32
2018-02-08T19:55:10.341Z,100043.33
2018-02-08T19:57:40.101Z,100041.23
2018-02-08T20:00:10.985Z,100041.22
2018-02-08T20:02:40.187Z,100045.46
2018-02-08T20:05:09.176Z,100049.67
2018-02-08T20:07:38.581Z,100042.49
2018-02-08T20:10:07.511Z,100047.15
2018-02-08T20:12:36.570Z,100052.61
2018-02-08T20:15:07.485Z,100053.45
2018-02-08T20:17:36.451Z,100050.50
2018-02-08T20:20:06.014Z,100055.98
2018-02-08T20:22:35.230Z,100053.02
2018-02-08T20:25:06.660Z,100043.31
2018-02-08T20:27:37.495Z,100041.17
2018-02-08T20:30:06.528Z,100040.72
2018-02-08T20:32:36.268Z,100043.66
2018-02-08T20:35:10.524Z,100050.90
2018-02-08T20:37:40.950Z,100053.42
2018-02-08T20:40:10.049Z,100048.34
2018-02-08T20:42:44.569Z,100050.86
2018-02-08T20:45:14.273Z,100051.34
2018-02-08T20:47:43.448Z,100050.50
2018-02-08T20:50:14.367Z,100057.23
2018-02-08T20:52:43.502Z,100057.66
2018-02-08T20:55:12.861Z,100061.08
2018-02-08T20:57:44.651Z,100054.33
2018-02-08T21:00:13.913Z,100053.47
2018-02-08T21:02:42.871Z,100056.43
2018-02-08T21:05:11.966Z,100056.84
2018-02-08T21:07:41.063Z,100056.44
2018-02-08T21:10:09.940Z,100061.95
2018-02-08T21:12:39.030Z,100060.23
2018-02-08T21:15:07.980Z,100061.94
2018-02-08T21:17:36.992Z,100061.54
2018-02-08T21:20:07.757Z,100067.86
2018-02-08T21:22:36.888Z,100073.75
2018-02-08T21:25:05.966Z,100075.03
2018-02-08T21:27:41.104Z,100082.17
2018-02-08T21:30:10.857Z,100081.74
2018-02-08T21:32:40.631Z,100085.12
2018-02-08T21:35:09.819Z,100087.23
2018-02-08T21:37:38.767Z,100091.87
2018-02-08T21:40:07.714Z,100093.12
2018-02-08T21:42:36.741Z,100085.15
2018-02-08T21:45:05.746Z,100098.22
2018-02-08T21:47:34.796Z,100096.53
2018-02-08T21:50:05.600Z,100097.83
2018-02-08T21:52:34.585Z,100090.65
2018-02-08T21:55:03.627Z,100095.71
2018-02-08T21:57:32.817Z,100094.03
2018-02-08T22:00:02.931Z,100094.03
2018-02-08T22:02:32.899Z,100094.87
2018-02-08T22:05:02.034Z,100091.48
2018-02-08T22:07:31.252Z,100087.28
2018-02-08T22:10:01.669Z,100081.34
2018-02-08T22:12:32.719Z,100084.31
2018-02-08T22:15:01.893Z,100079.22
2018-02-08T22:17:30.916Z,100081.37
2018-02-08T22:20:01.749Z,100080.94
2018-02-08T22:22:32.689Z,100075.43
2018-02-08T22:25:01.681Z,100080.09
2018-02-08T22:27:30.782Z,100080.05
2018-02-08T22:29:59.776Z,100072.88
2018-02-08T22:32:29.053Z,100075.41
2018-02-08T22:34:58.927Z,100073.32
2018-02-08T22:37:27.983Z,100072.45
2018-02-08T22:39:57.178Z,100074.13
2018-02-08T22:42:27.231Z,100069.50
2018-02-08T22:44:57.767Z,100071.63
2018-02-08T22:47:27.746Z,100072.88
2018-02-08T22:49:56.848Z,100070.75
2018-02-08T22:52:25.915Z,100074.11
2018-02-08T22:54:55.815Z,100077.91
2018-02-08T22:57:25.778Z,100080.00
2018-02-08T22:59:54.766Z,100088.02
2018-02-08T23:02:23.844Z,100096.53
2018-02-08T23:04:52.700Z,100093.98
2018-02-08T23:07:22.548Z,100097.37
2018-02-08T23:09:52.658Z,100094.44
2018-02-08T23:12:21.677Z,100096.13
2018-02-08T23:14:51.720Z,100100.33
2018-02-08T23:17:20.823Z,100092.31
2018-02-08T23:19:50.839Z,100088.05
2018-02-08T23:22:19.914Z,100096.91
2018-02-08T23:24:51.324Z,100088.89
2018-02-08T23:27:20.453Z,100099.42
2018-02-08T23:29:49.559Z,100103.20
2018-02-08T23:32:18.644Z,100101.85
2018-02-08T23:34:47.637Z,100108.98
2018-02-08T23:37:16.836Z,100120.34
2018-02-08T23:39:46.686Z,100125.77
2018-02-08T23:42:16.561Z,100132.91
2018-02-08T23:44:45.662Z,100135.02
2018-02-08T23:47:14.968Z,100125.69
2018-02-08T23:49:44.781Z,100133.74
2018-02-08T23:52:13.871Z,100146.01
2018-02-08T23:54:44.382Z,100143.95
2018-02-08T23:57:13.427Z,100146.52
2018-02-08T23:59:42.318Z,100151.17
